CBK9 weather

Little Parker Island Heliport
Little Parker Island, British Columbia, Canada

Public forecast

Using degrees Celsius for public forecast. Weather courtesy of forecast.io.

Closest aviation weather report (METAR) to Little Parker Island Heliport

Closest report is Victoria International Airport, 15.0 nm (27.7 km) S. Retrieved 2020/08/04 11:00 UTC (10 minutes ago):

CYYJ 041100Z 27003KT 20SM SKC 16/14 A3011 RMK SLP197 DENSITY ALT 100FT

Closest aviation forecast (TAF) to Little Parker Island Heliport

Closest forecast is Victoria International Airport, 15.0 nm (27.7 km) S. Retrieved 2020/08/04 06:43 UTC (4 hours ago):

TAF CYYJ 040540Z 0406/0506 VRB03KT P6SM FEW080 FM041200 VRB03KT P6SM FEW008 SCT012 FM041700 10005KT P6SM FEW015 FM042100 10008KT P6SM SKC BECMG 0503/0505 VRB03KT RMK NXT FCST BY 041200Z